This is the latest recevied weather packets stored in our database for station/object K1BWE-1. If no packets are shown the sender has not sent any weather packets the latest 10 day(s).
| Time | Temp. | Humidity | Pressure | Rain* | Wind** | Luminosity | Snow |
|---|---|---|---|---|---|---|---|
| 1778078360 | 21.11° C | 38% | 1017.4 hPa | 0 mm | - | 238 W/m² | - |
| 1778078056 | 20° C | 40% | 1017.6 hPa | 0 mm | - | 215 W/m² | - |
| 1778076848 | 18.33° C | 45% | 1017.4 hPa | 0 mm | - | 145 W/m² | - |
| 1778076546 | 18.33° C | 47% | 1017.5 hPa | 0 mm | - | 124 W/m² | - |
| 1778075940 | 16.67° C | 49% | 1017.5 hPa | 0 mm | - | 130 W/m² | - |
| 1778074726 | 14.44° C | 58% | 1017.4 hPa | 0 mm | - | 57 W/m² | - |
| 1778074423 | 13.89° C | 62% | 1017.4 hPa | 0 mm | - | 52 W/m² | - |
| 1778074119 | 13.33° C | 62% | 1017.4 hPa | 0 mm | - | 46 W/m² | - |
| 1778073211 | 11.67° C | 70% | 1017.3 hPa | 0 mm | - | 31 W/m² | - |
| 1778072908 | 10.56° C | 72% | 1017.3 hPa | 0 mm | - | 26 W/m² | - |
| 1778069579 | 8.89° C | 77% | 1016.6 hPa | 0 mm | - | 0 W/m² | - |
| 1778069277 | 9.44° C | 75% | 1016.7 hPa | 0 mm | - | 0 W/m² | - |
| 1778068975 | 9.44° C | 74% | 1016.7 hPa | 0 mm | - | 0 W/m² | - |
| 1778068672 | 9.44° C | 74% | 1016.6 hPa | 0 mm | - | 0 W/m² | - |
| 1778068068 | 8.89° C | 76% | 1016.7 hPa | 0 mm | - | 0 W/m² | - |
| 1778066857 | 9.44° C | 78% | 1016.5 hPa | 0 mm | - | 0 W/m² | - |
| 1778062014 | 10.56° C | 73% | 1015.9 hPa | 0 mm | - | 0 W/m² | - |
| 1778061712 | 10.56° C | 71% | 1015.9 hPa | 0 mm | - | 0 W/m² | - |
| 1778061410 | 10.56° C | 73% | 1016 hPa | 0 mm | - | 0 W/m² | - |
| 1778060200 | 10.56° C | 72% | 1016 hPa | 0 mm | - | 0 W/m² | - |
| 1778059897 | 10.56° C | 72% | 1016 hPa | 0 mm | - | 0 W/m² | - |
| 1778059594 | 10.56° C | 72% | 1015.9 hPa | 0 mm | - | 0 W/m² | - |
| 1778058989 | 10.56° C | 73% | 1016 hPa | 0 mm | - | 0 W/m² | - |
| 1778058385 | 11.11° C | 72% | 1015.5 hPa | 0 mm | - | 0 W/m² | - |
| 1778057777 | 10.56° C | 71% | 1015.8 hPa | 0 mm | - | 0 W/m² | - |
* Rain latest hour (hover to see other rain measurements)
** Current wind speed in m/s (hover to see current wind gust speed)